createdAt,value
2016-06-05T00:00:11.477Z,82.65
2016-06-05T00:01:11.480Z,82.56
2016-06-05T00:02:11.467Z,82.75
2016-06-05T00:03:11.469Z,82.94
2016-06-05T00:04:11.285Z,82.17
2016-06-05T00:05:11.444Z,82.11
2016-06-05T00:06:11.431Z,82.17
2016-06-05T00:07:11.418Z,82.69
2016-06-05T00:08:11.451Z,82.6
2016-06-05T00:09:11.408Z,82.75
2016-06-05T00:10:11.410Z,83.14
2016-06-05T00:11:11.397Z,83.04
2016-06-05T00:12:11.432Z,82.75
2016-06-05T00:13:11.575Z,82.94
2016-06-05T00:14:11.390Z,83.23
2016-06-05T00:15:11.189Z,82.94
2016-06-05T00:16:11.332Z,82.65
2016-06-05T00:17:11.320Z,82.94
2016-06-05T00:18:11.354Z,83.04
2016-06-05T00:19:11.310Z,82.75
2016-06-05T00:20:11.359Z,83.04
2016-06-05T00:21:11.284Z,83.33
2016-06-05T00:22:11.115Z,83.23
2016-06-05T00:23:11.273Z,83.14
2016-06-05T00:24:11.260Z,82.94
2016-06-05T00:25:11.263Z,82.75
2016-06-05T00:26:11.251Z,83.04
2016-06-05T00:27:11.237Z,83.42
2016-06-05T00:28:11.225Z,83.23
2016-06-05T00:29:11.211Z,83.04
2016-06-05T00:30:11.198Z,83.04
2016-06-05T00:31:11.201Z,83.42
2016-06-05T00:32:11.188Z,83.04
2016-06-05T00:33:11.175Z,83.52
2016-06-05T00:34:11.162Z,83.42
2016-06-05T00:35:11.164Z,84
2016-06-05T00:36:11.152Z,83.72
2016-06-05T00:37:11.139Z,83.42
2016-06-05T00:38:11.142Z,83.62
2016-06-05T00:39:11.113Z,83.52
2016-06-05T00:40:11.132Z,83.58
2016-06-05T00:41:11.088Z,84
2016-06-05T00:42:11.075Z,83.77
2016-06-05T00:43:11.280Z,84.2
2016-06-05T00:44:11.063Z,84.39
2016-06-05T00:45:11.067Z,83.81
2016-06-05T00:46:10.898Z,83.81
2016-06-05T00:47:11.040Z,84.2
2016-06-05T00:48:11.028Z,83.87
2016-06-05T00:49:11.015Z,84.48
2016-06-05T00:50:11.018Z,83.87
2016-06-05T00:51:11.005Z,83.67
2016-06-05T00:52:10.992Z,83.96
2016-06-05T00:53:10.995Z,84.16
2016-06-05T00:54:10.982Z,84.16
2016-06-05T00:55:10.968Z,84.39
2016-06-05T00:56:10.956Z,84.25
2016-06-05T00:57:10.943Z,84.39
2016-06-05T00:58:11.149Z,84.16
2016-06-05T00:59:10.917Z,84.25
2016-06-05T01:00:10.920Z,85.12
2016-06-05T01:01:10.907Z,85.22
2016-06-05T01:02:10.894Z,84.16
2016-06-05T01:03:10.739Z,85.02
2016-06-05T01:04:10.900Z,85.41
2016-06-05T01:05:10.870Z,85.41
2016-06-05T01:06:10.873Z,85.41
2016-06-05T01:07:10.892Z,85.12
2016-06-05T01:08:10.847Z,85.41
2016-06-05T01:09:10.819Z,85.6
2016-06-05T01:10:10.822Z,85.31
2016-06-05T01:11:10.872Z,85.41
2016-06-05T01:12:10.811Z,85.41
2016-06-05T01:13:10.814Z,85.22
2016-06-05T01:14:10.769Z,85.6
2016-06-05T01:15:10.772Z,85.8
2016-06-05T01:16:10.760Z,86.08
2016-06-05T01:17:10.762Z,86.08
2016-06-05T01:18:10.749Z,86.28
2016-06-05T01:19:10.737Z,86.28
2016-06-05T01:20:10.724Z,86.08
2016-06-05T01:21:10.758Z,86.08
2016-06-05T01:22:10.713Z,86.76
2016-06-05T01:23:10.748Z,86.33
2016-06-05T01:24:10.671Z,86.24
2016-06-05T01:25:10.674Z,86.38
2016-06-05T01:26:10.662Z,86.33
2016-06-05T01:27:10.648Z,86.24
2016-06-05T01:28:10.761Z,86.08
2016-06-05T01:29:10.639Z,86.24
2016-06-05T01:30:10.625Z,86.38
2016-06-05T01:31:10.613Z,86.38
2016-06-05T01:32:10.600Z,86.62
2016-06-05T01:33:10.602Z,86.62
2016-06-05T01:34:10.589Z,86.52
2016-06-05T01:35:10.576Z,86.33
2016-06-05T01:36:10.579Z,86.52
2016-06-05T01:37:10.567Z,86.62
2016-06-05T01:38:10.569Z,86.62
2016-06-05T01:39:10.540Z,86.82
2016-06-05T01:40:10.528Z,87.01
2016-06-05T01:41:10.530Z,87.1
2016-06-05T01:42:10.517Z,87.2
2016-06-05T01:43:10.505Z,87.3
2016-06-05T01:44:10.492Z,87.3
2016-06-05T01:45:10.478Z,87.01
2016-06-05T01:46:10.465Z,87.59
2016-06-05T01:47:10.468Z,87.01
2016-06-05T01:48:10.455Z,87.59
2016-06-05T01:49:10.285Z,87.68
2016-06-05T01:50:10.446Z,87.4
2016-06-05T01:51:10.401Z,87.68
2016-06-05T01:52:10.404Z,87.59
2016-06-05T01:53:10.390Z,87.68
2016-06-05T01:54:10.409Z,87.68
2016-06-05T01:55:10.380Z,87.59
2016-06-05T01:56:10.368Z,87.26
2016-06-05T01:57:10.370Z,87.3
2016-06-05T01:58:10.403Z,87.64
2016-06-05T01:59:10.328Z,87.64
2016-06-05T02:00:10.379Z,87.49
2016-06-05T02:01:10.318Z,87.49
2016-06-05T02:02:10.321Z,87.64
2016-06-05T02:03:10.293Z,87.83
2016-06-05T02:04:10.295Z,87.74
2016-06-05T02:05:10.298Z,87.64
2016-06-05T02:06:10.269Z,87.54
2016-06-05T02:07:10.256Z,87.64
2016-06-05T02:08:10.244Z,87.93
2016-06-05T02:09:10.246Z,87.64
2016-06-05T02:10:10.249Z,87.45
2016-06-05T02:11:10.220Z,87.68
2016-06-05T02:12:10.192Z,87.45
2016-06-05T02:13:10.522Z,87.93
2016-06-05T02:14:10.181Z,88.02
2016-06-05T02:15:10.183Z,88.12
2016-06-05T02:16:10.171Z,88.12
2016-06-05T02:17:10.158Z,88.6
2016-06-05T02:18:10.145Z,88.22
2016-06-05T02:19:10.148Z,88.41
2016-06-05T02:20:10.135Z,88.7
2016-06-05T02:21:10.107Z,88.41
2016-06-05T02:22:10.109Z,88.7
2016-06-05T02:23:10.080Z,88.41
2016-06-05T02:24:10.082Z,88.79
2016-06-05T02:25:10.070Z,88.6
2016-06-05T02:26:10.074Z,88.51
2016-06-05T02:27:10.045Z,88.6
2016-06-05T02:28:09.922Z,88.41
2016-06-05T02:29:10.034Z,88.31
2016-06-05T02:30:10.021Z,88.6
2016-06-05T02:31:10.009Z,88.6
2016-06-05T02:32:10.011Z,88.51
2016-06-05T02:33:09.998Z,88.31
2016-06-05T02:34:09.985Z,88.51
2016-06-05T02:35:09.972Z,88.51
2016-06-05T02:36:09.975Z,88.99
2016-06-05T02:37:09.947Z,88.6
2016-06-05T02:38:09.950Z,88.6
2016-06-05T02:39:09.936Z,88.65
2016-06-05T02:40:09.922Z,88.99
2016-06-05T02:41:09.958Z,88.51
2016-06-05T02:42:09.897Z,88.6
2016-06-05T02:43:09.899Z,88.7
2016-06-05T02:44:09.887Z,88.89
2016-06-05T02:45:09.936Z,88.7
2016-06-05T02:46:09.846Z,88.56
2016-06-05T02:47:10.067Z,88.56
2016-06-05T02:48:09.836Z,88.65
2016-06-05T02:49:09.822Z,88.95
2016-06-05T02:50:09.825Z,88.75
2016-06-05T02:51:09.813Z,88.65
2016-06-05T02:52:09.659Z,88.65
2016-06-05T02:53:09.802Z,88.65
2016-06-05T02:54:09.773Z,88.65
2016-06-05T02:55:09.824Z,88.65
2016-06-05T02:56:09.748Z,88.46
2016-06-05T02:57:09.750Z,88.46
2016-06-05T02:58:09.832Z,89.14
2016-06-05T02:59:09.724Z,88.95
2016-06-05T03:00:09.711Z,88.75
2016-06-05T03:01:09.698Z,88.95
2016-06-05T03:02:09.701Z,89.23
2016-06-05T03:03:09.704Z,89.53
2016-06-05T03:04:09.659Z,89.43
2016-06-05T03:05:09.662Z,88.56
2016-06-05T03:06:09.649Z,89.04
2016-06-05T03:07:09.620Z,89.14
2016-06-05T03:08:09.623Z,89.33
2016-06-05T03:09:09.625Z,88.75
2016-06-05T03:10:09.614Z,88.95
2016-06-05T03:11:09.617Z,89.62
2016-06-05T03:12:09.603Z,89.62
2016-06-05T03:13:09.590Z,89.23
2016-06-05T03:14:09.561Z,89.33
2016-06-05T03:15:09.549Z,89.33
2016-06-05T03:16:09.552Z,89.33
2016-06-05T03:17:09.538Z,89.33
2016-06-05T03:18:09.510Z,89.43
2016-06-05T03:19:09.496Z,89.53
2016-06-05T03:20:09.499Z,89.43
2016-06-05T03:21:09.486Z,89.43
2016-06-05T03:22:09.488Z,89.62
2016-06-05T03:23:09.476Z,89.62
2016-06-05T03:24:09.448Z,90
2016-06-05T03:25:09.451Z,89.62
2016-06-05T03:26:09.438Z,89.29
2016-06-05T03:27:09.424Z,89.14
2016-06-05T03:28:09.427Z,89.23
2016-06-05T03:29:09.415Z,89.53
2016-06-05T03:30:09.385Z,89.23
2016-06-05T03:31:09.388Z,89.43
2016-06-05T03:32:09.376Z,89.43
2016-06-05T03:33:09.362Z,89.43
2016-06-05T03:34:09.365Z,89.43
2016-06-05T03:35:09.353Z,89.43
2016-06-05T03:36:09.371Z,89.43
2016-06-05T03:37:09.358Z,89.33
2016-06-05T03:38:09.314Z,89.53
2016-06-05T03:39:09.301Z,89.43
2016-06-05T03:40:09.287Z,88.95
2016-06-05T03:41:09.275Z,89.43
2016-06-05T03:42:09.292Z,89.53
2016-06-05T03:43:09.781Z,89.96
2016-06-05T03:44:09.298Z,89.81
2016-06-05T03:45:09.238Z,90
2016-06-05T03:46:09.225Z,89.81
2016-06-05T03:47:09.213Z,89.81
2016-06-05T03:48:09.247Z,89.91
2016-06-05T03:49:09.187Z,89.04
2016-06-05T03:50:09.189Z,89.62
2016-06-05T03:51:09.192Z,89.43
2016-06-05T03:52:09.180Z,89.43
2016-06-05T03:53:09.151Z,89.33
2016-06-05T03:54:09.138Z,89.04
2016-06-05T03:55:09.125Z,89.14
2016-06-05T03:56:09.112Z,89.14
2016-06-05T03:57:09.115Z,89.14
2016-06-05T03:58:09.164Z,88.85
2016-06-05T03:59:09.088Z,89.14
2016-06-05T04:00:09.076Z,89.43
2016-06-05T04:01:09.063Z,89.43
2016-06-05T04:02:09.051Z,89.72
2016-06-05T04:03:09.037Z,89.53
2016-06-05T04:04:09.040Z,89.43
2016-06-05T04:05:09.027Z,89.14
2016-06-05T04:06:09.029Z,89.53
2016-06-05T04:07:09.017Z,89.14
2016-06-05T04:08:09.003Z,89.23
2016-06-05T04:09:08.975Z,90
2016-06-05T04:10:08.962Z,89.43
2016-06-05T04:11:08.950Z,89.23
2016-06-05T04:12:08.952Z,89.62
2016-06-05T04:13:08.939Z,90.2
2016-06-05T04:14:08.926Z,89.33
2016-06-05T04:15:08.929Z,89.43
2016-06-05T04:16:08.900Z,89.14
2016-06-05T04:17:08.894Z,89.43
2016-06-05T04:18:08.909Z,89.14
2016-06-05T04:19:08.923Z,89.23
2016-06-05T04:20:08.954Z,89.53
2016-06-05T04:21:08.969Z,89.43
2016-06-05T04:22:08.979Z,89.43
2016-06-05T04:23:08.991Z,90.3
2016-06-05T04:24:08.973Z,89.91
2016-06-05T04:25:08.986Z,90
2016-06-05T04:26:08.983Z,89.81
2016-06-05T04:27:08.822Z,90
2016-06-05T04:28:08.985Z,90.3
2016-06-05T04:29:09.491Z,90
2016-06-05T04:30:08.967Z,89.91
2016-06-05T04:31:08.958Z,89.53
2016-06-05T04:32:08.948Z,89.23
2016-06-05T04:33:08.935Z,89.53
2016-06-05T04:34:08.925Z,88.65
2016-06-05T04:35:08.912Z,88.56
2016-06-05T04:36:08.900Z,88.89
2016-06-05T04:37:08.903Z,88.89
2016-06-05T04:38:08.892Z,88.6
2016-06-05T04:39:08.878Z,88.41
2016-06-05T04:40:08.882Z,88.6
2016-06-05T04:41:08.854Z,88.79
2016-06-05T04:42:08.841Z,88.79
2016-06-05T04:43:08.830Z,88.51
2016-06-05T04:44:08.833Z,89.47
2016-06-05T04:45:08.835Z,88.79
2016-06-05T04:46:08.807Z,89.28
2016-06-05T04:47:08.809Z,88.7
2016-06-05T04:48:08.781Z,88.7
2016-06-05T04:49:08.784Z,88.6
2016-06-05T04:50:08.786Z,88.6
2016-06-05T04:51:08.742Z,88.7
2016-06-05T04:52:08.730Z,88.12
2016-06-05T04:53:08.733Z,88.12
2016-06-05T04:54:08.735Z,87.64
2016-06-05T04:55:08.722Z,88.51
2016-06-05T04:56:08.693Z,87.54
2016-06-05T04:57:08.681Z,87.49
2016-06-05T04:58:08.871Z,88.26
2016-06-05T04:59:08.686Z,87.78
2016-06-05T05:00:08.657Z,87.68
2016-06-05T05:01:08.644Z,87.78
2016-06-05T05:02:08.632Z,87.59
2016-06-05T05:03:08.634Z,87.59
2016-06-05T05:04:08.621Z,87.49
2016-06-05T05:05:08.624Z,87.68
2016-06-05T05:06:08.611Z,87.49
2016-06-05T05:07:08.598Z,87.59
2016-06-05T05:08:08.585Z,87.88
2016-06-05T05:09:08.573Z,87.49
2016-06-05T05:10:08.560Z,87.3
2016-06-05T05:11:08.546Z,87.68
2016-06-05T05:12:08.533Z,87.68
2016-06-05T05:13:08.568Z,87.68
2016-06-05T05:14:08.523Z,87.49
2016-06-05T05:15:08.510Z,87.49
2016-06-05T05:16:08.497Z,87.01
2016-06-05T05:17:08.484Z,87.05
2016-06-05T05:18:08.472Z,87.05
2016-06-05T05:19:08.458Z,87.1
2016-06-05T05:20:08.461Z,87.1
2016-06-05T05:21:08.448Z,87.01
2016-06-05T05:22:08.529Z,87.05
2016-06-05T05:23:08.439Z,86.86
2016-06-05T05:24:08.425Z,86.76
2016-06-05T05:25:08.412Z,86.47
2016-06-05T05:26:08.415Z,86.38
2016-06-05T05:27:08.386Z,86.28
2016-06-05T05:28:08.389Z,86.38
2016-06-05T05:29:08.376Z,86.47
2016-06-05T05:30:08.379Z,85.89
2016-06-05T05:31:08.350Z,85.41
2016-06-05T05:32:08.353Z,85.41
2016-06-05T05:33:08.340Z,85.31
2016-06-05T05:34:08.358Z,84.93
2016-06-05T05:35:08.313Z,85.06
2016-06-05T05:36:08.145Z,85.7
2016-06-05T05:37:08.288Z,85.55
2016-06-05T05:38:08.291Z,85.45
2016-06-05T05:39:08.278Z,85.31
2016-06-05T05:40:08.312Z,85.45
2016-06-05T05:41:08.252Z,85.26
2016-06-05T05:42:08.240Z,85.45
2016-06-05T05:43:08.960Z,85.06
2016-06-05T05:44:08.228Z,85.36
2016-06-05T05:45:08.216Z,84.48
2016-06-05T05:46:08.203Z,84.39
2016-06-05T05:47:08.206Z,84.68
2016-06-05T05:48:08.177Z,84.58
2016-06-05T05:49:08.164Z,84.39
2016-06-05T05:50:08.167Z,84.58
2016-06-05T05:51:08.154Z,84.3
2016-06-05T05:52:08.156Z,84.3
2016-06-05T05:53:08.144Z,84.1
2016-06-05T05:54:08.131Z,84.1
2016-06-05T05:55:08.117Z,84
2016-06-05T05:56:08.120Z,84.05
2016-06-05T05:57:08.108Z,83.91
2016-06-05T05:58:08.095Z,84.2
2016-06-05T05:59:08.082Z,84.3
2016-06-05T06:00:08.085Z,84.39
2016-06-05T06:01:08.072Z,84.05
2016-06-05T06:02:08.058Z,83.47
2016-06-05T06:03:08.046Z,83.37
2016-06-05T06:04:08.049Z,83.95
2016-06-05T06:05:08.035Z,83.47
2016-06-05T06:06:08.022Z,83.37
2016-06-05T06:07:08.009Z,83.22
2016-06-05T06:08:07.996Z,82.64
2016-06-05T06:09:07.999Z,82.73
2016-06-05T06:10:07.986Z,82.73
2016-06-05T06:11:07.989Z,82.45
2016-06-05T06:12:07.960Z,82.06
2016-06-05T06:13:08.604Z,81.71
2016-06-05T06:14:07.950Z,81.29
2016-06-05T06:15:07.937Z,81.81
2016-06-05T06:16:07.940Z,81.67
2016-06-05T06:17:07.926Z,82
2016-06-05T06:18:07.914Z,82
2016-06-05T06:19:07.932Z,81.13
2016-06-05T06:20:07.904Z,81.23
2016-06-05T06:21:07.937Z,81.04
2016-06-05T06:22:07.878Z,81.04
2016-06-05T06:23:07.708Z,81.32
2016-06-05T06:24:07.868Z,81.23
2016-06-05T06:25:07.902Z,82.97
2016-06-05T06:26:07.841Z,82.97
2016-06-05T06:27:07.891Z,81.07
2016-06-05T06:28:07.660Z,81.56
2016-06-05T06:29:07.662Z,80.49
2016-06-05T06:30:07.805Z,80.3
2016-06-05T06:31:07.793Z,79.62
2016-06-05T06:32:07.796Z,81.85
2016-06-05T06:33:07.782Z,80.49
2016-06-05T06:34:07.785Z,80.11
2016-06-05T06:35:07.772Z,78.94
2016-06-05T06:36:07.759Z,79.04
2016-06-05T06:37:07.793Z,79.14
2016-06-05T06:38:07.749Z,78.94
2016-06-05T06:39:07.736Z,79.72
2016-06-05T06:40:07.738Z,79.62
2016-06-05T06:41:07.726Z,80.44
2016-06-05T06:42:07.713Z,80.44
2016-06-05T06:43:07.700Z,80.01
2016-06-05T06:44:07.687Z,80.01
2016-06-05T06:45:07.690Z,79.08
2016-06-05T06:46:07.692Z,78.69
2016-06-05T06:47:07.665Z,78.89
2016-06-05T06:48:07.651Z,78.69
2016-06-05T06:49:07.653Z,78.64
2016-06-05T06:50:07.640Z,78.15
2016-06-05T06:51:07.628Z,78.41
2016-06-05T06:52:07.615Z,78.11
2016-06-05T06:53:07.633Z,78.11
2016-06-05T06:54:07.605Z,79.22
2016-06-05T06:55:07.607Z,78.25
2016-06-05T06:56:07.594Z,78.74
2016-06-05T06:57:07.597Z,78.54
2016-06-05T06:58:07.662Z,77.09
2016-06-05T06:59:07.571Z,77.57
2016-06-05T07:00:07.574Z,76.89
2016-06-05T07:01:07.577Z,77.57
2016-06-05T07:02:07.626Z,77.47
2016-06-05T07:03:07.379Z,79.12
2016-06-05T07:04:07.600Z,77.37
2016-06-05T07:05:07.510Z,77.8
2016-06-05T07:06:07.513Z,77.61
2016-06-05T07:07:07.515Z,76.93
2016-06-05T07:08:07.502Z,75.87
2016-06-05T07:09:07.489Z,74.8
2016-06-05T07:10:07.476Z,74.51
2016-06-05T07:11:07.478Z,75.38
2016-06-05T07:12:07.481Z,75.96
2016-06-05T07:13:07.485Z,76.35
2016-06-05T07:14:07.455Z,76.45
2016-06-05T07:15:07.458Z,75.19
2016-06-05T07:16:07.445Z,75.61
2016-06-05T07:17:07.431Z,76.48
2016-06-05T07:18:07.638Z,76.68
2016-06-05T07:19:07.407Z,75.13
2016-06-05T07:20:07.425Z,75.9
2016-06-05T07:21:07.395Z,75.51
2016-06-05T07:22:07.398Z,75.51
2016-06-05T07:23:07.401Z,75.51
2016-06-05T07:24:07.389Z,75.32
2016-06-05T07:25:07.375Z,74.54
2016-06-05T07:26:07.362Z,74.35
2016-06-05T07:27:07.365Z,75.32
2016-06-05T07:28:07.400Z,75.81
2016-06-05T07:29:07.339Z,74.84
2016-06-05T07:30:07.327Z,74.93
2016-06-05T07:31:07.330Z,74.54
2016-06-05T07:32:07.332Z,74.16
2016-06-05T07:33:07.319Z,74.77
2016-06-05T07:34:07.306Z,75.84
2016-06-05T07:35:07.293Z,74.68
2016-06-05T07:36:07.296Z,74
2016-06-05T07:37:07.298Z,73.52
2016-06-05T07:38:07.286Z,73.8
2016-06-05T07:39:07.272Z,74
2016-06-05T07:40:07.260Z,72.64
2016-06-05T07:41:07.262Z,72.93
2016-06-05T07:42:07.249Z,74
2016-06-05T07:43:07.237Z,73.03
2016-06-05T07:44:07.239Z,73.61
2016-06-05T07:45:07.257Z,73.71
2016-06-05T07:46:07.229Z,73.22
2016-06-05T07:47:07.263Z,73.52
2016-06-05T07:48:07.218Z,73.84
2016-06-05T07:49:07.034Z,71.28
2016-06-05T07:50:07.193Z,71.86
2016-06-05T07:51:07.242Z,72.35
2016-06-05T07:52:07.182Z,72.55
2016-06-05T07:53:07.170Z,72.55
2016-06-05T07:54:07.156Z,72.55
2016-06-05T07:55:07.175Z,73.36
2016-06-05T07:56:07.144Z,72.77
2016-06-05T07:57:07.209Z,72.77
2016-06-05T07:58:07.762Z,72.29
2016-06-05T07:59:07.153Z,72.29
2016-06-05T08:00:07.123Z,73.26
2016-06-05T08:01:07.125Z,72.67
2016-06-05T08:02:07.114Z,72.52
2016-06-05T08:03:07.116Z,74.46
2016-06-05T08:04:07.102Z,73.97
2016-06-05T08:05:07.105Z,71.48
2016-06-05T08:06:07.092Z,71.2
2016-06-05T08:07:07.080Z,71.55
2016-06-05T08:08:07.082Z,70.77
2016-06-05T08:09:07.069Z,70.57
2016-06-05T08:10:06.900Z,69.51
2016-06-05T08:11:07.059Z,69.45
2016-06-05T08:12:07.046Z,69.32
2016-06-05T08:13:06.893Z,68.73
2016-06-05T08:14:07.036Z,68.18
2016-06-05T08:15:07.023Z,67.99
2016-06-05T08:16:07.025Z,68.38
2016-06-05T08:17:07.028Z,68.87
2016-06-05T08:18:07.015Z,68.28
2016-06-05T08:19:07.002Z,68.48
2016-06-05T08:20:07.004Z,67.63
2016-06-05T08:21:06.992Z,66.47
2016-06-05T08:22:06.979Z,65.89
2016-06-05T08:23:06.966Z,64.04
2016-06-05T08:24:07.032Z,65.2
2016-06-05T08:25:06.972Z,64.43
2016-06-05T08:26:06.975Z,63.71
2016-06-05T08:27:06.961Z,64.04
2016-06-05T08:28:06.980Z,65.85
2016-06-05T08:29:06.967Z,66.05
2016-06-05T08:30:06.767Z,66.05
2016-06-05T08:31:06.925Z,66.82
2016-06-05T08:32:06.928Z,65.47
2016-06-05T08:33:06.915Z,64.43
2016-06-05T08:34:06.918Z,65.89
2016-06-05T08:35:06.905Z,64.69
2016-06-05T08:36:06.908Z,64.4
2016-06-05T08:37:06.894Z,63.94
2016-06-05T08:38:06.913Z,63.75
2016-06-05T08:39:06.884Z,63.65
2016-06-05T08:40:06.887Z,62.87
2016-06-05T08:41:06.718Z,62.97
2016-06-05T08:42:06.877Z,62.68
2016-06-05T08:43:06.864Z,63.45
2016-06-05T08:44:07.319Z,63.07
2016-06-05T08:45:06.838Z,63.75
2016-06-05T08:46:06.841Z,63.94
2016-06-05T08:47:06.843Z,62.48
2016-06-05T08:48:06.846Z,62.19
2016-06-05T08:49:06.818Z,62.19
2016-06-05T08:50:06.648Z,60.96
2016-06-05T08:51:06.667Z,60.47
2016-06-05T08:52:06.810Z,60.35
2016-06-05T08:53:06.797Z,59.95
2016-06-05T08:54:06.800Z,60.64
2016-06-05T08:55:06.802Z,60.54
2016-06-05T08:56:06.789Z,59.95
2016-06-05T08:57:06.776Z,60.05
2016-06-05T08:58:06.795Z,61.38
2016-06-05T08:59:06.766Z,62.35
2016-06-05T09:00:06.769Z,61.87
2016-06-05T09:01:06.756Z,61.12
2016-06-05T09:02:06.759Z,60.83
2016-06-05T09:03:06.745Z,61.51
2016-06-05T09:04:06.748Z,61.51
2016-06-05T09:05:06.736Z,62.1
2016-06-05T09:06:06.723Z,61.15
2016-06-05T09:07:06.725Z,61.05
2016-06-05T09:08:06.713Z,59.5
2016-06-05T09:09:06.559Z,59.11
2016-06-05T09:10:06.702Z,58.07
2016-06-05T09:11:06.721Z,58.26
2016-06-05T09:12:06.723Z,58.17
2016-06-05T09:13:07.335Z,58.17
2016-06-05T09:14:06.697Z,58.07
2016-06-05T09:15:06.684Z,58.56
2016-06-05T09:16:06.687Z,59.05
2016-06-05T09:17:06.658Z,57.59
2016-06-05T09:18:06.677Z,57.2
2016-06-05T09:19:06.663Z,56.61
2016-06-05T09:20:06.651Z,56.32
2016-06-05T09:21:06.669Z,55.35
2016-06-05T09:22:06.657Z,56.51
2016-06-05T09:23:06.643Z,56.32
2016-06-05T09:24:06.630Z,56.9
2016-06-05T09:25:06.633Z,56.12
2016-06-05T09:26:06.637Z,56.41
2016-06-05T09:27:06.639Z,56.22
2016-06-05T09:28:07.328Z,56.12
2016-06-05T09:29:06.472Z,57.68
2016-06-05T09:30:06.615Z,59.23
2016-06-05T09:31:06.603Z,57.29
2016-06-05T09:32:06.589Z,57.1
2016-06-05T09:33:06.592Z,56.51
2016-06-05T09:34:06.611Z,56.35
2016-06-05T09:35:06.582Z,56.37
2016-06-05T09:36:06.584Z,55.69
2016-06-05T09:37:06.571Z,54.91
2016-06-05T09:38:06.605Z,55.3
2016-06-05T09:39:06.561Z,55.01
2016-06-05T09:40:06.564Z,53.36
2016-06-05T09:41:06.551Z,54.23
2016-06-05T09:42:06.555Z,52.31
2016-06-05T09:43:06.853Z,51.92
2016-06-05T09:44:06.387Z,52.12
2016-06-05T09:45:06.530Z,53.09
2016-06-05T09:46:06.533Z,53.28
2016-06-05T09:47:06.536Z,52.7
2016-06-05T09:48:06.523Z,52.89
2016-06-05T09:49:06.510Z,52.31
2016-06-05T09:50:06.357Z,53.75
2016-06-05T09:51:06.516Z,53.38
2016-06-05T09:52:06.502Z,53.67
2016-06-05T09:53:06.505Z,55.13
2016-06-05T09:54:06.492Z,53.77
2016-06-05T09:55:06.495Z,54.26
2016-06-05T09:56:06.482Z,52.5
2016-06-05T09:57:06.470Z,52.73
2016-06-05T09:58:06.737Z,53.11
2016-06-05T09:59:06.475Z,53.11
2016-06-05T10:00:06.478Z,52.73
2016-06-05T10:01:06.481Z,52.83
2016-06-05T10:02:06.467Z,51.56
2016-06-05T10:03:06.454Z,52.53
2016-06-05T10:04:06.441Z,51.36
2016-06-05T10:05:06.459Z,52.02
2016-06-05T10:06:06.430Z,52.67
2016-06-05T10:07:06.434Z,53.26
2016-06-05T10:08:06.420Z,53.26
2016-06-05T10:09:06.470Z,53.48
2016-06-05T10:10:06.410Z,54.36
2016-06-05T10:11:06.413Z,54.77
2016-06-05T10:12:06.400Z,52.92
2016-06-05T10:13:06.778Z,52.56
2016-06-05T10:14:06.405Z,52.36
2016-06-05T10:15:06.407Z,51.78
2016-06-05T10:16:06.395Z,51.58
2016-06-05T10:17:06.413Z,52.26
2016-06-05T10:18:06.401Z,52.07
2016-06-05T10:19:06.418Z,52.17
2016-06-05T10:20:06.374Z,52
2016-06-05T10:21:06.377Z,51.21
2016-06-05T10:22:06.379Z,52.58
2016-06-05T10:23:06.367Z,52.78
2016-06-05T10:24:06.370Z,52.48
2016-06-05T10:25:06.388Z,52.48
2016-06-05T10:26:06.376Z,52.8
2016-06-05T10:27:06.362Z,52.7
2016-06-05T10:28:06.380Z,52.15
2016-06-05T10:29:06.524Z,51.66
2016-06-05T10:30:06.449Z,52.44
2016-06-05T10:31:06.373Z,52.15
2016-06-05T10:32:06.406Z,52.34
2016-06-05T10:33:06.362Z,51.86
2016-06-05T10:34:06.397Z,51.86
2016-06-05T10:35:06.353Z,53.32
2016-06-05T10:36:06.339Z,52.25
2016-06-05T10:37:06.342Z,53.61
2016-06-05T10:38:06.345Z,52.05
2016-06-05T10:39:06.347Z,52.08
2016-06-05T10:40:06.350Z,50.32
2016-06-05T10:41:06.338Z,53.05
2016-06-05T10:42:06.340Z,50.9
2016-06-05T10:43:06.202Z,50.51
2016-06-05T10:44:06.330Z,50.02
2016-06-05T10:45:06.316Z,51.56
2016-06-05T10:46:06.320Z,51.78
2016-06-05T10:47:06.338Z,54.32
2016-06-05T10:48:06.324Z,52.64
2016-06-05T10:49:06.327Z,53.52
2016-06-05T10:50:06.330Z,53.32
2016-06-05T10:51:06.302Z,53.03
2016-06-05T10:52:06.304Z,53.32
2016-06-05T10:53:06.307Z,53.32
2016-06-05T10:54:06.309Z,53.22
2016-06-05T10:55:06.297Z,53.93
2016-06-05T10:56:06.299Z,54.03
2016-06-05T10:57:06.287Z,52.56
2016-06-05T10:58:06.148Z,52.56
2016-06-05T10:59:06.292Z,52.47
2016-06-05T11:00:06.295Z,53.13
2016-06-05T11:01:06.297Z,53.03
2016-06-05T11:02:06.284Z,53.13
2016-06-05T11:03:06.334Z,54.95
2016-06-05T11:04:06.275Z,54.49
2016-06-05T11:05:06.309Z,53.42
2016-06-05T11:06:06.280Z,52.25
2016-06-05T11:07:06.266Z,52.51
2016-06-05T11:08:06.253Z,52.83
2016-06-05T11:09:06.303Z,52.05
2016-06-05T11:10:06.244Z,52.25
2016-06-05T11:11:06.262Z,51.73
2016-06-05T11:12:06.249Z,52.05
2016-06-05T11:13:06.236Z,51.56
2016-06-05T11:14:06.270Z,52.54
2016-06-05T11:15:06.242Z,52.37
2016-06-05T11:16:06.243Z,51.98
2016-06-05T11:17:06.246Z,50.93
2016-06-05T11:18:06.233Z,51.12
2016-06-05T11:19:06.236Z,51.03
2016-06-05T11:20:06.239Z,51.03
2016-06-05T11:21:06.241Z,50.93
2016-06-05T11:22:06.244Z,51.12
2016-06-05T11:23:06.215Z,50.83
2016-06-05T11:24:06.203Z,51.42
2016-06-05T11:25:06.221Z,50.05
2016-06-05T11:26:06.209Z,50.34
2016-06-05T11:27:06.212Z,50.93
2016-06-05T11:28:06.355Z,51.03
2016-06-05T11:29:06.217Z,51.81
2016-06-05T11:30:06.204Z,50.93
2016-06-05T11:31:06.190Z,52.49
2016-06-05T11:32:06.240Z,52.32
2016-06-05T11:33:06.196Z,51.44
2016-06-05T11:34:06.214Z,51.54
2016-06-05T11:35:06.186Z,50.98
2016-06-05T11:36:06.220Z,50.95
2016-06-05T11:37:06.175Z,50.34
2016-06-05T11:38:06.178Z,51.12
2016-06-05T11:39:06.165Z,52.49
2016-06-05T11:40:06.184Z,52.49
2016-06-05T11:41:06.170Z,52.95
2016-06-05T11:42:06.158Z,52.1
2016-06-05T11:43:06.175Z,51.81
2016-06-05T11:44:06.897Z,52.27
2016-06-05T11:45:06.166Z,51.86
2016-06-05T11:46:06.153Z,52.37
2016-06-05T11:47:06.155Z,52.27
2016-06-05T11:48:06.158Z,52.49
2016-06-05T11:49:06.161Z,51.22
2016-06-05T11:50:06.148Z,49.29
2016-06-05T11:51:06.151Z,49.58
2016-06-05T11:52:06.137Z,50.93
2016-06-05T11:53:06.140Z,51.61
2016-06-05T11:54:06.128Z,51.51
2016-06-05T11:55:06.130Z,51.05
2016-06-05T11:56:06.148Z,51.07
2016-06-05T11:57:05.979Z,51.27
2016-06-05T11:58:06.138Z,51.44
2016-06-05T11:59:07.156Z,51.03
2016-06-05T12:00:06.128Z,51.42
2016-06-05T12:01:06.021Z,51
2016-06-05T12:02:06.117Z,51.78
2016-06-05T12:03:06.198Z,51.98
2016-06-05T12:04:06.107Z,51.68
2016-06-05T12:05:06.109Z,51.22
2016-06-05T12:06:06.098Z,51.9
2016-06-05T12:07:06.116Z,50.85
2016-06-05T12:08:06.102Z,51.25
2016-06-05T12:09:06.090Z,50.76
2016-06-05T12:10:06.093Z,51.17
2016-06-05T12:11:05.939Z,51.37
2016-06-05T12:12:06.083Z,51.66
2016-06-05T12:13:05.945Z,50.98
2016-06-05T12:14:06.088Z,50.95
2016-06-05T12:15:06.074Z,51.15
2016-06-05T12:16:06.078Z,50.85
2016-06-05T12:17:06.080Z,51.44
2016-06-05T12:18:06.082Z,50.95
2016-06-05T12:19:06.086Z,50.85
2016-06-05T12:20:06.072Z,50.15
2016-06-05T12:21:06.060Z,50.95
2016-06-05T12:22:06.063Z,49.68
2016-06-05T12:23:06.065Z,51.27
2016-06-05T12:24:06.068Z,50.9
2016-06-05T12:25:06.054Z,49.73
2016-06-05T12:26:06.152Z,49.63
2016-06-05T12:27:06.059Z,50.81
2016-06-05T12:28:06.046Z,51.86
2016-06-05T12:29:06.315Z,51.78
2016-06-05T12:30:06.068Z,49.73
2016-06-05T12:31:06.054Z,49.53
2016-06-05T12:32:06.042Z,50.02
2016-06-05T12:33:06.029Z,50.95
2016-06-05T12:34:06.032Z,51.61
2016-06-05T12:35:06.035Z,52.22
2016-06-05T12:36:06.084Z,50.56
2016-06-05T12:37:06.039Z,50.63
2016-06-05T12:38:06.028Z,50.05
2016-06-05T12:39:06.030Z,50.9
2016-06-05T12:40:06.017Z,50.32
2016-06-05T12:41:06.019Z,49.46
2016-06-05T12:42:06.023Z,49.85
2016-06-05T12:43:06.041Z,50.98
2016-06-05T12:44:06.137Z,51.29
2016-06-05T12:45:06.000Z,52.95
2016-06-05T12:46:06.002Z,50.93
2016-06-05T12:47:06.005Z,49.85
2016-06-05T12:48:06.022Z,49.77
2016-06-05T12:49:06.025Z,50.95
2016-06-05T12:50:05.997Z,51.56
2016-06-05T12:51:05.999Z,50.88
2016-06-05T12:52:06.002Z,49.53
2016-06-05T12:53:05.989Z,50.32
2016-06-05T12:54:05.836Z,50.71
2016-06-05T12:55:05.979Z,49.16
2016-06-05T12:56:05.982Z,49.53